Tiempo atmosférico en la estación meteorológica de Castellón de la Plana, Almazora, Castelló/Castellón (35 m.)



Fecha
DESCASC
Temp. máxima en grados centígrados (hora)
DESCASC
Temp. mínima en grados centígrados (hora)
DESCASC
Temp. media en grados centígrados
DESCASC
Racha de viento máxima en m/sg (hora)
DESCASC
Velocidad máxima media en intervalos de 10 minutos(hora)
DESCASC
Precipitaciones diarias en mm
DESCASC
Precipitaciones de 00:00 a 06:00 en mm
DESCASC
Precipitaciones de 06:00 a 12:00 en mm
DESCASC
Precipitaciones de 12:00 a 18:00 en mm
DESCASC
Precipitaciones de 18:00 a 24:00 en mm
DESCASC

Gráficas

Temp. máximas Temp. mínimas Temp. medias Precipitaciones Rachas de viento máximas Velocidades máximas media en intervalos de 10 minutos

Datos horarios

Fecha y hora oficial Temperatura (ºC) Velocidad del viento (km/h) Dirección del viento Racha (km/h) Dirección de racha Precipitación (mm) Presión (hPa) Tendencia (hPa) Humedad (%)
2018-09-22 23:00:00 25 2 Norte 6 Este 0 1016.4 1.1 89
2018-09-22 22:00:00 25.2 3 Nordeste 6 Nordeste 0 1016.1 1.3 89
2018-09-22 21:00:00 25.5 3 Nordeste 7 Este 0 1015.7 0.9 88
2018-09-22 20:00:00 26.2 3 Este 11 Sudeste 0 1015.3 0.4 84
2018-09-22 19:00:00 26.8 6 Este 14 Este 0 1014.8 -0.5 80
2018-09-22 18:00:00 27.5 7 Sudeste 18 Este 0 1014.8 -0.9 74
2018-09-22 17:00:00 28.1 12 Este 22 Este 0 1014.9 -1.3 70
2018-09-22 16:00:00 28.6 11 Sudeste 24 Este 0 1015.3 -1.4 69
2018-09-22 15:00:00 28.7 12 Este 24 Este 0 1015.7 -1.2 69
2018-09-22 14:00:00 29.1 10 Este 20 Sudeste 0 1016.2 -0.6 64
2018-09-22 13:00:00 28.8 8 Este 19 Este 0 1016.7 0.1 68
2018-09-22 12:00:00 28.6 8 Sudeste 15 Este 0 1016.9 0.7 67
2018-09-22 11:00:00 26 4 Oeste 11 Noroeste 0 1016.8 1 61
2018-09-22 10:00:00 23.6 5 Noroeste 13 Oeste 0 1016.6 1.5 67
2018-09-22 09:00:00 21.6 8 Noroeste 13 Oeste 0 1016.2 1.6 73
2018-09-22 08:00:00 21.6 4 Oeste 10 Oeste 0 1015.8 1.6 73
2018-09-22 07:00:00 21.7 4 Oeste 10 Oeste 0 1015.1 0.8 73
2018-09-22 06:00:00 21.9 5 Noroeste 13 Noroeste 0 1014.6 0.2 76
2018-09-22 05:00:00 22.4 5 Noroeste 10 Oeste 0 1014.2 -0.2 77
2018-09-22 04:00:00 22.7 4 Noroeste 10 Oeste 0 1014.3 0.1 79
2018-09-22 03:00:00 22.9 5 Noroeste 9 Norte 0 1014.4 0.4 83
2018-09-22 02:00:00 23.2 4 Noroeste 8 Noroeste 0 1014.4 0.8 87
2018-09-22 01:00:00 23.9 5 Noroeste 9 Noroeste 0 1014.2 0.9 85
2018-09-22 00:00:00 24.4 2 Norte 8 Noroeste 0 1014 1.4 83
2018-09-21 23:00:00 24.9 5 Noroeste 7 Noroeste 0 1013.6 1.6 80
2018-09-21 22:00:00 25.3 0 Calma 4 Sudeste 0 1013.3 2 78
2018-09-21 21:00:00 26 3 Este 6 Sur 0 1012.6 1.5 75
2018-09-21 20:00:00 26.5 3 Sudeste 9 Este 0 1012 1 72
2018-09-21 19:00:00 26.7 6 Este 14 Este 0 1011.3 0.4 74
2018-09-21 18:00:00 27.6 6 Sudeste 17 Sur 0 1011.1 -0.1 72
2018-09-21 17:00:00 29.3 9 Sudeste 17 Sur 0 1011 -0.7 66
2018-09-21 16:00:00 30.2 9 Sudeste 18 Sur 0 1010.9 -1.2 60
2018-09-21 15:00:00 30.6 10 Sudeste 17 Este 0 1011.2 -1.1 53
2018-09-21 14:00:00 30.1 9 Sudeste 16 Sudeste 0 1011.7 -0.3 51
2018-09-21 13:00:00 29.7 7 Sudeste 16 Sudeste 0 1012.1 0.3 53
2018-09-21 12:00:00 28.1 4 Sur 10 Sur 0 1012.3 0.8 55
2018-09-21 11:00:00 24.6 4 Noroeste 8 Sudoeste 0 1012 1 65
2018-09-21 10:00:00 22.3 6 Oeste 11 Oeste 0 1011.8 1.4 81
2018-09-21 09:00:00 20.8 7 Oeste 13 Oeste 0 1011.5 1.2 84
2018-09-21 08:00:00 20.3 3 Noroeste 10 Oeste 0 1011 0.8 88
2018-09-21 07:00:00 20.8 3 Noroeste 13 Oeste 0 1010.4 -0.2 87
2018-09-21 06:00:00 21.2 6 Noroeste 12 Noroeste 0 1010.3 -0.9 87
2018-09-21 05:00:00 21.5 10 Oeste 14 Oeste 0 1010.2 -1.4 89
2018-09-21 04:00:00 21.8 6 Noroeste 11 Oeste 0 1010.6 -1.4 85
2018-09-21 03:00:00 21.9 3 Noroeste 7 Noroeste 0 1011.2 -1.2 88
2018-09-21 02:00:00 22.4 3 Noroeste 7 Noroeste 0 1011.6 -0.8 89
2018-09-21 01:00:00 23.2 4 Oeste 10 Sudoeste 0 1012 -0.4 87
2018-09-21 00:00:00 23.3 5 Sudoeste 7 Sudoeste 0 1012.4 0.2 88
2018-09-20 23:00:00 23.8 0 Calma 5 Oeste 0 1012.4 0.2 85
2018-09-20 22:00:00 23.9 4 Sudoeste 7 Sudoeste 0 1012.4 0.3 83
2018-09-20 21:00:00 24.4 4 Sudoeste 8 Sur 0 1012.2 0.2 83
2018-09-20 20:00:00 25.3 4 Sur 12 Sur 0 1012.2 -0.3 80
2018-09-20 19:00:00 26.4 5 Sur 14 Sudeste 0 1012.1 -0.7 75
2018-09-20 18:00:00 27.4 8 Sur 18 Sur 0 1012 -1.3 70
2018-09-20 17:00:00 28.2 10 Sur 22 Sur 0 1012.5 -1.2 67
2018-09-20 16:00:00 28.9 10 Sur 18 Sur 0 1012.8 -1.4 63
2018-09-20 15:00:00 29.2 9 Sur 19 Sur 0 1013.3 -1.3 60
2018-09-20 14:00:00 29 7 Sur 17 Sudeste 0 1013.7 -0.9 63
2018-09-20 13:00:00 28.7 6 Sur 14 Este 0 1014.2 -0.2 59
2018-09-20 12:00:00 27.7 5 Sudeste 11 Sudeste 0 1014.6 0.4 56
2018-09-20 11:00:00 24.8 4 Este 9 Este 0 1014.6 0.6 72
2018-09-20 10:00:00 22.6 5 Oeste 14 Oeste 0 1014.4 0.5 81
2018-09-20 09:00:00 21.1 6 Noroeste 16 Oeste 0 1014.2 0.2 82
2018-09-20 08:00:00 21.1 8 Oeste 15 Oeste 0 1014 -0.2 83
2018-09-20 07:00:00 20.7 5 Noroeste 17 Oeste 0 1013.9 -0.8 86
2018-09-20 06:00:00 20.9 9 Oeste 16 Oeste 0 1014 -1.1 86
2018-09-20 05:00:00 21.2 9 Oeste 15 Noroeste 0 1014.2 -1 87
2018-09-20 04:00:00 21.2 8 Noroeste 14 Noroeste 0 1014.7 -1 90
2018-09-20 03:00:00 21.4 5 Noroeste 10 Oeste 0 1015.1 -0.7 91
2018-09-20 02:00:00 21.7 4 Noroeste 8 Noroeste 0 1015.2 -0.3 90
2018-09-20 01:00:00 22.1 4 Noroeste 6 Norte 0 1015.7 0.5 89
2018-09-20 00:00:00 22.7 3 Noroeste 6 Noroeste 0 1015.8 1.3 88
2018-09-19 23:00:00 23.1 2 Oeste 5 Sudoeste 0 1015.5 1.1 87
2018-09-19 22:00:00 23.5 3 Sudoeste 5 Sudoeste 0 1015.2 0.7 84
2018-09-19 21:00:00 24.2 2 Sur 6 Este 0 1014.5 0.1 81
2018-09-19 20:00:00 25 2 Sudoeste 8 Este 0 1014.4 0.1 78
2018-09-19 19:00:00 26 4 Sur 12 Este 0 1014.5 -0.2 74
2018-09-19 18:00:00 26.2 6 Sudeste 19 Sudeste 0 1014.4 -0.4 74
2018-09-19 17:00:00 27.4 10 Sudeste 19 Este 0 1014.3 -0.8 67
2018-09-19 16:00:00 27.9 8 Este 22 Sudeste 0 1014.7 -0.7 66
2018-09-19 15:00:00 27.8 12 Sudeste 20 Sudeste 0 1014.8 -0.8 65
2018-09-19 14:00:00 27.9 10 Este 21 Este 0 1015.1 -0.2 63
2018-09-19 13:00:00 27.4 8 Este 17 Este 0 1015.4 0.6 62
2018-09-19 12:00:00 26.4 6 Nordeste 16 Este 0 1015.6 1.7 69
2018-09-19 11:00:00 24.6 5 Este 12 Este 0 1015.3 1.9 76
2018-09-19 10:00:00 22.2 6 Oeste 17 Oeste 0 1014.8 1.8 84
2018-09-19 09:00:00 20.8 7 Oeste 15 Noroeste 0 1013.9 1.2 89
2018-09-19 08:00:00 20.3 9 Oeste 15 Oeste 0 1013.4 1 91
2018-09-19 07:00:00 20.6 5 Oeste 12 Noroeste 0 1013 0.5 93
2018-09-19 06:00:00 20.8 4 Noroeste 11 Noroeste 0 1012.7 -0.3 92
2018-09-19 05:00:00 21.3 4 Noroeste 14 Noroeste 0 1012.4 -0.6 90
2018-09-19 04:00:00 21.5 9 Oeste 15 Noroeste 0 1012.5 -0.4 87
2018-09-19 03:00:00 22 9 Oeste 14 Noroeste 0 1013 0.4 91
2018-09-19 02:00:00 22 6 Oeste 12 Oeste 0 1013 0.2 92
2018-09-19 01:00:00 22.1 4 Noroeste 8 Oeste 0 1012.9 0.1 91
2018-09-19 00:00:00 22.3 4 Nordeste 9 Noroeste 0 1012.6 0.9 92
2018-09-18 23:00:00 22.9 6 Noroeste 12 Oeste 0 1012.8 1.2 90
2018-09-18 22:00:00 23.3 5 Noroeste 11 Noroeste 0 1012.8 1.7 86
2018-09-18 21:00:00 23.3 5 Norte 9 Noroeste 0.2 1011.7 0.9 89
2018-09-18 20:00:00 23.6 4 Norte 7 Norte 0.2 1011.6 0.8 85
2018-09-18 19:00:00 24.2 4 Nordeste 14 Este 0.4 1011.1 0.5 81
2018-09-18 18:00:00 25.2 5 Nordeste 13 Nordeste 0 1010.8 0.4 72
2018-09-18 17:00:00 25.7 9 Este 19 Este 0 1010.8 0.2 72
2018-09-18 16:00:00 27 11 Sudeste 21 Este 0 1010.6 -0.3 66
2018-09-18 15:00:00 27.8 11 Sudeste 23 Este 0 1010.4 -1.1 62
2018-09-18 14:00:00 28.1 6 Sur 13 Sudeste 0 1010.6 -1.6 56
2018-09-18 13:00:00 26.3 5 Oeste 15 Oeste 0 1010.9 -1 65
2018-09-18 12:00:00 24 7 Oeste 16 Oeste 0 1011.5 0.2 75
2018-09-18 11:00:00 22.6 7 Noroeste 13 Oeste 0 1012.2 2 82
2018-09-18 10:00:00 21.4 6 Noroeste 10 Noroeste 0 1011.9 2.3 93
2018-09-18 09:00:00 20.3 0 Calma 6 Norte 0 1011.3 1.7 96
2018-09-18 08:00:00 20 3 Noroeste 6 Noroeste 0 1010.2 -0.3 97
2018-09-18 07:00:00 20.2 3 Norte 8 Noroeste 0 1009.6 -1.1 97
2018-09-18 06:00:00 20.2 3 Noroeste 6 Sudeste 0.2 1009.6 -1.9 97
2018-09-18 05:00:00 20.2 2 Nordeste 6 Noroeste 0.4 1010.5 -0.5 97
2018-09-18 04:00:00 20.1 6 Oeste 13 Norte 4.8 1010.7 -1.2 96
2018-09-18 03:00:00 20.4 6 Sudeste 16 Norte 2 1011.5 0.1 97
2018-09-18 02:00:00 20.1 10 Norte 21 Nordeste 2 1011 0 96
2018-09-18 01:00:00 19.8 10 Este 34 Noroeste 32 1011.9 0.5 96
2018-09-18 00:00:00 23.4 16 Noroeste 32 Noroeste 0.4 1011.4 0.2 82
2018-09-17 23:00:00 24.8 2 Sudoeste 9 Nordeste 0 1011 0 88
2018-09-17 22:00:00 25 3 Nordeste 9 Este 0 1011.4 0.6 84
2018-09-17 21:00:00 24.8 6 Nordeste 10 Norte 0 1011.2 -0.1 83
2018-09-17 20:00:00 25.4 5 Este 13 Este 0 1011 -0.4 79
2018-09-17 19:00:00 25.8 5 Este 17 Este 0 1010.8 -1.3 79
2018-09-17 18:00:00 27.1 7 Este 19 Este 0 1011.3 -1.3 71
2018-09-17 17:00:00 27.5 6 Este 20 Este 0 1011.4 -2 68
2018-09-17 16:00:00 28.4 10 Este 24 Este 0 1012.1 -1.6 65
2018-09-17 15:00:00 28.8 10 Este 23 Este 0 1012.6 -1.1 66
2018-09-17 14:00:00 28.4 13 Sudeste 23 Sudeste 0 1013.4 -1 66
2018-09-17 13:00:00 27.8 13 Este 22 Sudeste 0 1013.7 -0.8 65
2018-09-17 12:00:00 27 4 Nordeste 15 Norte 0 1013.7 -0.4 65
2018-09-17 11:00:00 24.7 4 Norte 9 Noroeste 0 1014.4 0.4 75
2018-09-17 10:00:00 23.2 5 Noroeste 10 Noroeste 0 1014.5 0.8 79
2018-09-17 09:00:00 21.3 6 Noroeste 13 Oeste 0 1014.1 0.7 86
2018-09-17 08:00:00 20.6 6 Noroeste 15 Oeste 0 1014 0.7 88
2018-09-17 07:00:00 20.6 7 Oeste 12 Oeste 0 1013.7 -0.1 90
2018-09-17 06:00:00 20.6 7 Oeste 10 Oeste 0 1013.4 -0.7 91
2018-09-17 05:00:00 20.9 4 Noroeste 10 Noroeste 0 1013.3 -1.4 90
2018-09-17 04:00:00 21.1 5 Noroeste 15 Oeste 0 1013.8 -1.6 90
2018-09-17 03:00:00 21.4 8 Noroeste 14 Oeste 0 1014.1 -1.4 89
2018-09-17 02:00:00 21.7 6 Noroeste 11 Oeste 0 1014.7 -0.4 87
2018-09-17 01:00:00 22.6 4 Noroeste 8 Norte 0 1015.4 0.7 87
2018-09-17 00:00:00 22.7 2 Noroeste 6 Norte 0 1015.5 1.3 87
2018-09-16 23:00:00 23.3 3 Norte 5 Noroeste 0 1015.1 1 84
2018-09-16 22:00:00 23.7 0 Calma 7 Sur 0 1014.7 1 81
2018-09-16 21:00:00 24.1 4 Sur 9 Sur 0 1014.2 0.5 79
2018-09-16 20:00:00 25.1 6 Sur 12 Este 0 1014.1 0.6 74
2018-09-16 19:00:00 25.9 4 Sudeste 14 Sudeste 0 1013.7 -0.1 71
2018-09-16 18:00:00 26.4 9 Sudeste 20 Este 0 1013.7 -0.4 69
2018-09-16 17:00:00 27.2 10 Sudeste 23 Sudeste 0 1013.5 -1.2 60
2018-09-16 16:00:00 27.9 13 Sudeste 22 Este 0 1013.8 -1 64
2018-09-16 15:00:00 27.6 9 Este 22 Sudeste 0 1014.1 -1.1 64
2018-09-16 14:00:00 27.3 12 Este 23 Sudeste 0 1014.7 -0.8 63
2018-09-16 13:00:00 27.6 4 Este 11 Este 0 1014.8 -0.7 55
2018-09-16 12:00:00 26 3 Sur 12 Oeste 0 1015.2 -0.2 59
2018-09-16 11:00:00 23.3 4 Sudoeste 14 Oeste 0 1015.5 0.9 73
2018-09-16 10:00:00 20.8 10 Oeste 18 Oeste 0 1015.5 1.1 79
2018-09-16 09:00:00 19.1 8 Oeste 17 Oeste 0 1015.4 1.1 82
2018-09-16 08:00:00 18.3 10 Oeste 19 Noroeste 0 1014.6 0.2 85
2018-09-16 07:00:00 18.3 10 Oeste 18 Noroeste 0 1014.4 -0.3 85
2018-09-16 06:00:00 18.5 9 Oeste 17 Oeste 0 1014.3 -0.8 88
2018-09-16 05:00:00 18.6 10 Oeste 17 Noroeste 0 1014.4 -0.8 88
2018-09-16 04:00:00 19.1 8 Oeste 12 Noroeste 0 1014.7 -0.3 90
2018-09-16 03:00:00 19.5 6 Noroeste 10 Oeste 0 1015.1 -0.6 91
2018-09-16 02:00:00 19.8 4 Noroeste 11 Oeste 0 1015.2 -0.3 91
2018-09-16 01:00:00 20.2 4 Noroeste 13 Noroeste 0 1015 -0.4 91
2018-09-16 00:00:00 20.9 6 Noroeste 13 Noroeste 0 1015.7 0.7 90
2018-09-15 23:00:00 21.2 4 Noroeste 9 Oeste 0 1015.5 1.2 90
2018-09-15 22:00:00 21.5 2 Sur 5 Noroeste 0 1015.4 0.7 90
2018-09-15 21:00:00 22 3 Norte 9 Oeste 0 1015 0 87
2018-09-15 20:00:00 22.4 5 Oeste 11 Norte 0 1014.3 -0.7 87
2018-09-15 19:00:00 22.8 4 Norte 13 Norte 0 1014.7 -0.9 85
2018-09-15 18:00:00 22.6 7 Noroeste 15 Noroeste 0 1015 -0.9 85
2018-09-15 17:00:00 22.1 6 Norte 12 Norte 1.4 1015 -1 87
2018-09-15 16:00:00 21.2 5 Nordeste 15 Noroeste 3.6 1015.6 -0.5 93
2018-09-15 15:00:00 21.1 6 Noroeste 14 Noroeste 0.8 1015.9 0.8 91
2018-09-15 14:00:00 20 7 Norte 15 Norte 3.2 1016 1.7 94
2018-09-15 13:00:00 20.3 6 Este 26 Este 19.2 1016.1 1.9 93
2018-09-15 12:00:00 22.6 4 Este 24 Este 5.6 1015.1 1.1 87
2018-09-15 11:00:00 25.4 6 Nordeste 16 Nordeste 0 1014.3 0.7 75
2018-09-15 10:00:00 24.6 8 Nordeste 15 Norte 0 1014.2 1 80
2018-09-15 09:00:00 22.8 4 Noroeste 8 Noroeste 0 1014 0.9 83
2018-09-15 08:00:00 22.8 4 Noroeste 9 Noroeste 0 1013.6 0.1 84
2018-09-15 07:00:00 22.6 4 Norte 6 Norte 0 1013.2 -0.3 86
2018-09-15 06:00:00 22.3 5 Noroeste 9 Noroeste 0 1013.1 -0.7 88
2018-09-15 05:00:00 22.4 4 Noroeste 8 Noroeste 0 1013.5 -0.3 87
2018-09-15 04:00:00 22.4 3 Noroeste 6 Noroeste 0 1013.5 -0.2 86
2018-09-15 03:00:00 22.8 4 Noroeste 6 Norte 0 1013.8 0.4 86
2018-09-15 02:00:00 23.2 3 Noroeste 5 Norte 0 1013.8 0.7 84
2018-09-15 01:00:00 23.6 2 Norte 5 Sudoeste 0 1013.7 0.9 84
2018-09-15 00:00:00 24 0 Calma 5 Sudoeste 0 1013.4 0.8 82
2018-09-14 23:00:00 24.4 3 Sudoeste 7 Sudoeste 0 1013.1 0.7 81
2018-09-14 22:00:00 24.7 2 Sudoeste 5 Sur 0 1012.8 0.5 80
2018-09-14 21:00:00 25.3 3 Sur 10 Sur 0 1012.6 0.2 78
2018-09-14 20:00:00 26 4 Sur 15 Sur 0 1012.4 0.2 75
2018-09-14 19:00:00 27 8 Sudeste 20 Sur 0 1012.3 -0.2 70
2018-09-14 18:00:00 28 9 Sudeste 23 Sudeste 0 1012.4 -0.6 65
2018-09-14 17:00:00 28.4 11 Sudeste 20 Sudeste 0 1012.2 -1.2 64
2018-09-14 16:00:00 29.1 11 Sudeste 23 Sudeste 0 1012.5 -1.1 61
2018-09-14 15:00:00 28.8 9 Sudeste 21 Sur 0 1013 -0.5 64
2018-09-14 14:00:00 29.2 10 Sudeste 22 Sudeste 0 1013.4 0 58
2018-09-14 13:00:00 28.3 11 Sudeste 20 Este 0 1013.6 0.5 57
2018-09-14 12:00:00 28.8 6 Sudeste 13 Sur 0 1013.5 0.7 53
2018-09-14 11:00:00 25.8 4 Sudeste 10 Este 0 1013.4 1 62
2018-09-14 10:00:00 23.8 2 Noroeste 14 Noroeste 0 1013.1 1.1 69
2018-09-14 09:00:00 21.8 6 Noroeste 14 Oeste 0 1012.8 1 74
2018-09-14 08:00:00 21.1 8 Oeste 17 Oeste 0 1012.4 0.4 79
2018-09-14 07:00:00 20.9 7 Oeste 14 Noroeste 0 1012 -0.1 82
2018-09-14 06:00:00 21.2 8 Oeste 14 Noroeste 0 1011.8 -0.7 83
2018-09-14 05:00:00 21.4 7 Noroeste 14 Oeste 0 1012 -0.8 84
2018-09-14 04:00:00 21.9 8 Oeste 17 Noroeste 0 1012.1 -0.6 84
2018-09-14 03:00:00 22.3 8 Oeste 16 Noroeste 0 1012.5 -0.3 84
2018-09-14 02:00:00 22.4 6 Sudoeste 9 Sudoeste 0 1012.8 -0.1 85
2018-09-14 01:00:00 22.9 3 Noroeste 9 Sudoeste 0 1012.7 -0.4 83
2018-09-14 00:00:00 23.3 4 Sudoeste 7 Sudoeste 0 1012.8 0.1 82
2018-09-13 23:00:00 23.8 4 Sudoeste 6 Sudoeste 0 1012.9 0.5 81
2018-09-13 22:00:00 24.2 3 Sudoeste 7 Sur 0 1013.1 1 79
2018-09-13 21:00:00 24.8 3 Sur 10 Sur 0 1012.7 0.6 76
2018-09-13 20:00:00 25.8 6 Sudeste 15 Sudeste 0 1012.4 0.2 72
2018-09-13 19:00:00 26.5 9 Sudeste 19 Este 0 1012.1 -0.6 69
2018-09-13 18:00:00 27.2 11 Este 21 Sudeste 0 1012.1 -0.9 66
2018-09-13 17:00:00 27.8 12 Este 22 Sudeste 0 1012.2 -1.2 62
2018-09-13 16:00:00 28.5 13 Este 27 Sudeste 0 1012.7 -1 57
2018-09-13 15:00:00 28.8 13 Este 26 Sudeste 0 1013 -0.9 53
2018-09-13 14:00:00 29.3 12 Este 25 Este 0 1013.4 -0.3 49
2018-09-13 13:00:00 28.8 9 Este 19 Este 0 1013.7 0.1 50
2018-09-13 12:00:00 28.6 8 Este 15 Este 0 1013.9 0.3 53
2018-09-13 11:00:00 26.4 6 Este 13 Este 0 1013.7 0.7 56
2018-09-13 10:00:00 23.5 5 Sudoeste 10 Oeste 0 1013.6 1.1 67
2018-09-13 09:00:00 21.5 6 Oeste 14 Oeste 0 1013.6 1.3 73
2018-09-13 08:00:00 20.2 6 Noroeste 14 Noroeste 0 1013 0.5 79
2018-09-13 07:00:00 20.6 8 Noroeste 14 Oeste 0 1012.5 0 78
2018-09-13 06:00:00 21 8 Oeste 12 Oeste 0 1012.3 -0.2 85
2018-09-13 05:00:00 21.5 4 Noroeste 6 Noroeste 0 1012.5 -0.2 88
2018-09-13 04:00:00 22.1 4 Norte 9 Norte 0 1012.5 -0.5 83
2018-09-13 03:00:00 22.7 4 Noroeste 12 Oeste 0 1012.5 -1.2 83
2018-09-13 02:00:00 22.6 5 Noroeste 17 Noroeste 0 1012.7 -1.3 87
2018-09-13 01:00:00 23.6 9 Oeste 18 Oeste 0 1013 -1.1 83
2018-09-13 00:00:00 24.2 6 Oeste 13 Noroeste 0 1013.7 -0.5 82
2018-09-12 23:00:00 24.5 6 Sudoeste 12 Oeste 0 1014 0.4 83
2018-09-12 22:00:00 25 4 Sur 6 Sudoeste 0 1014.1 0.1 79
2018-09-12 21:00:00 25.5 2 Sudeste 9 Este 0 1014.2 0.9 78
2018-09-12 20:00:00 26.3 7 Este 17 Sudeste 0 1013.6 -0.2 74
2018-09-12 19:00:00 26.9 9 Sudeste 18 Sudeste 0 1014 -0.4 70
2018-09-12 18:00:00 27.8 9 Sur 17 Este 0 1013.3 -1.6 65
2018-09-12 17:00:00 28.1 7 Sudeste 18 Sudeste 0 1013.8 -2.1 62
2018-09-12 16:00:00 30 11 Sur 22 Sudeste 0 1014.4 -2.3 54
2018-09-12 15:00:00 29.9 10 Sudeste 22 Este 0 1014.9 -2.1 55
2018-09-12 14:00:00 29.4 8 Sudeste 23 Sudeste 0 1015.9 -1 59
2018-09-12 13:00:00 28.1 14 Este 24 Este 0 1016.7 0 64
2018-09-12 12:00:00 28 7 Sudeste 12 Sudeste 0 1017 0.5 60
2018-09-12 11:00:00 25.1 4 Norte 13 Noroeste 0 1016.9 0.5 66
2018-09-12 10:00:00 23.5 5 Noroeste 14 Oeste 0 1016.7 0.9 68
2018-09-12 09:00:00 22.2 5 Noroeste 10 Noroeste 0 1016.5 0.9 71
2018-09-12 08:00:00 21.2 6 Noroeste 13 Noroeste 0 1016.4 0.3 75
2018-09-12 07:00:00 21.2 8 Noroeste 15 Noroeste 0 1015.8 -0.6 74
2018-09-12 06:00:00 20.9 6 Oeste 16 Oeste 0 1015.6 -1.1 78
2018-09-12 05:00:00 21.3 10 Oeste 18 Noroeste 0 1016.1 -1.1 75
2018-09-12 04:00:00 21.7 10 Oeste 18 Oeste 0 1016.4 -1.2 75
2018-09-12 03:00:00 22 9 Oeste 16 Oeste 0 1016.7 -1 76
2018-09-12 02:00:00 22.3 5 Noroeste 14 Noroeste 0 1017.2 -0.2 79
2018-09-12 01:00:00 22.6 7 Noroeste 13 Oeste 0 1017.6 0.3 78
2018-09-12 00:00:00 22.7 5 Noroeste 10 Norte 0 1017.7 1 83
2018-09-11 23:00:00 23.4 3 Noroeste 6 Norte 0 1017.4 1.1 85
2018-09-11 22:00:00 23.7 3 Norte 6 Norte 0 1017.3 0.7 85
2018-09-11 21:00:00 24.2 2 Nordeste 15 Norte 0.4 1016.7 0.4 82
2018-09-11 20:00:00 24.9 10 Nordeste 18 Nordeste 0 1016.3 -0.4 79
2018-09-11 19:00:00 25.1 7 Nordeste 21 Nordeste 0 1016.6 -0.5 76
2018-09-11 18:00:00 25.3 8 Este 24 Este 0 1016.3 -0.9 74
2018-09-11 17:00:00 27 12 Este 23 Este 0 1016.7 -0.9 66
2018-09-11 16:00:00 28.3 11 Este 27 Sudeste 0 1017.1 -1 60
2018-09-11 15:00:00 28.2 13 Este 28 Sudeste 0 1017.2 -1.4 61
2018-09-11 14:00:00 28.3 11 Este 28 Este 0 1017.6 -1 58
2018-09-11 13:00:00 27.9 17 Este 27 Sudeste 0 1018.1 0.1 52
2018-09-11 12:00:00 27.8 8 Nordeste 20 Este 0 1018.6 0.9 54
2018-09-11 11:00:00 26 6 Nordeste 15 Este 0 1018.6 0.9 64
2018-09-11 10:00:00 23.2 5 Noroeste 13 Oeste 0 1018 0.6 61
2018-09-11 09:00:00 20.5 8 Oeste 16 Oeste 0 1017.7 0.3 68
2018-09-11 08:00:00 20 8 Noroeste 15 Noroeste 0 1017.7 0.2 68
2018-09-11 07:00:00 19.7 9 Noroeste 17 Noroeste 0 1017.4 0.2 71
2018-09-11 06:00:00 19.8 9 Oeste 17 Noroeste 0 1017.4 0.2 72
2018-09-11 05:00:00 20.3 8 Noroeste 15 Noroeste 0 1017.5 0.1 72
2018-09-11 04:00:00 20.4 6 Noroeste 15 Oeste 0 1017.2 -0.7 73
2018-09-11 03:00:00 20.7 8 Oeste 16 Noroeste 0 1017.2 -0.8 76
2018-09-11 02:00:00 20.7 9 Oeste 15 Noroeste 0 1017.4 -0.6 80
2018-09-11 01:00:00 21.1 4 Noroeste 14 Oeste 0 1017.9 0.1 81
2018-09-11 00:00:00 21.9 6 Noroeste 12 Noroeste 0 1018 0.7 79
2018-09-10 23:00:00 22.8 5 Norte 10 Norte 0 1018 1.1 79
2018-09-10 22:00:00 23.8 5 Nordeste 15 Nordeste 0 1017.8 0.6 75
2018-09-10 21:00:00 24 6 Nordeste 14 Nordeste 0 1017.3 0.5 75
2018-09-10 20:00:00 24.6 4 Este 19 Este 0 1016.9 0.1 73
2018-09-10 19:00:00 25.1 7 Este 21 Nordeste 0 1017.2 0.5 68
2018-09-10 18:00:00 25.9 9 Este 26 Este 0 1016.8 -0.1 64
2018-09-10 17:00:00 25.4 9 Este 30 Este 0 1016.8 -0.2 69
2018-09-10 16:00:00 27.2 13 Este 29 Este 0 1016.7 -0.3 53
2018-09-10 15:00:00 26 10 Este 25 Este 0 1016.9 -0.1 62
2018-09-10 14:00:00 26.5 9 Este 27 Este 0 1017 0 55
2018-09-10 13:00:00 26 9 Este 17 Este 0 1017 0.1 61
2018-09-10 12:00:00 25.1 8 Nordeste 24 Nordeste 0 1017 0.8 63
2018-09-10 11:00:00 24.2 8 Norte 18 Norte 0 1017 1.5 65
2018-09-10 10:00:00 23.8 9 Nordeste 21 Nordeste 0 1016.9 2.5 65
2018-09-10 09:00:00 23.4 12 Norte 24 Norte 0 1016.2 1.9 69
2018-09-10 08:00:00 23.4 10 Norte 24 Norte 0 1015.5 1.5 70
2018-09-10 07:00:00 23 10 Norte 19 Norte 0 1014.4 0.7 74
2018-09-10 06:00:00 22.2 5 Noroeste 12 Oeste 0 1014.3 -0.1 79
2018-09-10 05:00:00 23.4 9 Norte 16 Nordeste 0 1014 -0.5 76
2018-09-10 04:00:00 23.6 8 Norte 17 Norte 0 1013.7 -0.8 77
2018-09-10 03:00:00 23.4 6 Noroeste 13 Norte 0 1014.4 0 77
2018-09-10 02:00:00 24.2 10 Norte 20 Norte 0 1014.5 0.7 73
2018-09-10 01:00:00 24 4 Norte 9 Norte 0 1014.5 0.6 74
2018-09-10 00:00:00 24.2 4 Norte 14 Nordeste 0 1014.4 1.3 75
2018-09-09 23:00:00 24.5 9 Norte 14 Nordeste 0 1013.8 0.9 75
2018-09-09 22:00:00 25 5 Norte 16 Nordeste 0 1013.9 1.2 75
2018-09-09 21:00:00 25.1 5 Nordeste 13 Norte 0 1013.1 0.5 77
2018-09-09 20:00:00 25.6 6 Nordeste 15 Este 0 1012.9 0.1 73
2018-09-09 19:00:00 26.1 5 Este 14 Este 0 1012.7 0.2 71
2018-09-09 18:00:00 26.3 7 Este 16 Sudeste 0 1012.6 -0.8 73
2018-09-09 17:00:00 27.3 6 Este 19 Este 0 1012.8 -1 66
2018-09-09 16:00:00 27.6 6 Este 19 Este 0 1012.5 -1.3 66
2018-09-09 15:00:00 27.2 9 Este 20 Este 0 1013.4 -0.4 67
2018-09-09 14:00:00 26.5 11 Este 19 Sudeste 0 1013.8 0 71
2018-09-09 13:00:00 26.7 5 Este 17 Este 0 1013.8 0.3 67
2018-09-09 12:00:00 27.4 9 Este 16 Este 0 1013.8 0.6 63
2018-09-09 11:00:00 25 4 Noroeste 16 Oeste 0 1013.8 0.7 69
2018-09-09 10:00:00 22.6 8 Oeste 13 Oeste 0 1013.5 0.8 78
2018-09-09 09:00:00 21.6 5 Noroeste 12 Noroeste 0 1013.2 0.5 84
2018-09-09 08:00:00 20.9 7 Oeste 13 Oeste 0 1013.1 0.4 89
2018-09-09 07:00:00 21.3 6 Oeste 14 Noroeste 0 1012.7 -0.5 84
2018-09-09 06:00:00 21.4 6 Noroeste 14 Oeste 0 1012.7 -0.3 88
2018-09-09 05:00:00 21.8 4 Noroeste 11 Nordeste 0 1012.7 -0.2 89
2018-09-09 04:00:00 22 5 Nordeste 11 Nordeste 0 1013.2 0.1 89
2018-09-09 03:00:00 21.6 5 Noroeste 13 Oeste 0 1013 -0.4 89
2018-09-09 02:00:00 21.9 5 Noroeste 9 Noroeste 0 1012.9 -0.5 87
2018-09-09 01:00:00 22.1 4 Noroeste 7 Oeste 0 1013.1 -0.1 87
2018-09-09 00:00:00 22.3 4 Noroeste 8 Noroeste 0 1013.4 0.9 87
2018-09-08 23:00:00 23.1 3 Noroeste 6 Noroeste 0 1013.4 1.3 86
2018-09-08 22:00:00 23.9 4 Noroeste 6 Noroeste 0 1013.2 1.3 83
2018-09-08 21:00:00 24.2 2 Nordeste 5 Este 0 1012.5 0.5 81
2018-09-08 20:00:00 24.8 4 Este 8 Este 0 1012.1 0 77
2018-09-08 19:00:00 25.4 2 Este 13 Este 0 1011.9 -0.6 77
2018-09-08 18:00:00 25.5 8 Este 13 Este 0 1012 -0.7 76
2018-09-08 17:00:00 25.6 8 Este 13 Este 0 1012.1 -1.4 73
2018-09-08 16:00:00 25.4 7 Este 18 Este 0 1012.5 -1.6 75
2018-09-08 15:00:00 25.9 3 Sudeste 10 Sudeste 0 1012.7 -1.6 76
2018-09-08 14:00:00 24.1 4 Norte 9 Norte 0 1013.5 0.3 83
2018-09-08 13:00:00 22.9 2 Oeste 22 Sur 8.2 1014.1 1.5 91
2018-09-08 12:00:00 23 5 Oeste 15 Sur 5.4 1014.3 1.9 88
2018-09-08 11:00:00 24 6 Oeste 12 Oeste 0 1013.2 0.9 74
2018-09-08 10:00:00 23.8 6 Oeste 15 Oeste 0 1012.6 1.1 71
2018-09-08 09:00:00 22 7 Noroeste 14 Oeste 0 1012.4 0.8 74
2018-09-08 08:00:00 20.8 9 Oeste 14 Oeste 0 1012.3 1 82
2018-09-08 07:00:00 20.5 8 Noroeste 15 Noroeste 0 1011.5 0.1 82
2018-09-08 06:00:00 20.7 9 Noroeste 15 Noroeste 0 1011.6 -0.1 81
2018-09-08 05:00:00 20.9 8 Oeste 12 Oeste 0 1011.3 -0.7 84
2018-09-08 04:00:00 21.2 7 Noroeste 13 Noroeste 0 1011.4 -0.5 83
2018-09-08 03:00:00 21.6 7 Oeste 13 Oeste 0 1011.7 0.1 82
2018-09-08 02:00:00 22.1 7 Noroeste 15 Noroeste 0 1012 0.5 80
2018-09-08 01:00:00 22.8 7 Noroeste 11 Noroeste 0 1011.9 0.5 78
2018-09-08 00:00:00 23.2 5 Noroeste 9 Oeste 0 1011.6 0.9 77
2018-09-07 23:00:00 24.6 3 Norte 6 Nordeste 0 1011.5 1.2 75
2018-09-07 22:00:00 24.9 4 Nordeste 8 Nordeste 0 1011.4 1.6 75
2018-09-07 21:00:00 25.5 4 Este 11 Sudeste 0 1010.7 1 73
2018-09-07 20:00:00 25.8 8 Este 18 Sudeste 0 1010.3 0.2 72
2018-09-07 19:00:00 26.5 7 Este 20 Este 0 1009.8 -0.2 64
2018-09-07 18:00:00 27 9 Sudeste 28 Este 0 1009.7 -0.8 59
2018-09-07 17:00:00 27.2 12 Este 24 Este 0 1010.1 -0.7 57
2018-09-07 16:00:00 27.6 14 Este 28 Sudeste 0 1010 -1.1 56
2018-09-07 15:00:00 28.3 10 Sudeste 23 Este 0 1010.5 -0.6 52
2018-09-07 14:00:00 26.4 11 Este 19 Sudeste 0 1010.8 -0.1 52
2018-09-07 13:00:00 27.2 12 Sudeste 20 Sudeste 0 1011.1 0.7 51
2018-09-07 12:00:00 27.2 9 Este 21 Este 0 1011.1 1 45
2018-09-07 11:00:00 25.9 7 Sur 13 Sudeste 0 1010.9 1 48
2018-09-07 10:00:00 23.6 6 Oeste 14 Oeste 0 1010.4 0.8 57
2018-09-07 09:00:00 21.8 7 Noroeste 15 Noroeste 0 1010.1 1 64
2018-09-07 08:00:00 20.5 5 Noroeste 10 Noroeste 0 1009.9 0.5 72
2018-09-07 07:00:00 21 4 Oeste 9 Oeste 0 1009.6 0.4 70
2018-09-07 06:00:00 21.2 7 Noroeste 13 Oeste 0 1009.1 -0.2 70
2018-09-07 05:00:00 21.4 4 Noroeste 14 Noroeste 0 1009.4 0.1 76
2018-09-07 04:00:00 21.7 6 Oeste 10 Noroeste 0 1009.2 -0.2 80
2018-09-07 03:00:00 22.2 7 Oeste 14 Noroeste 0 1009.3 -0.2 77
2018-09-07 02:00:00 22.5 7 Noroeste 12 Oeste 0 1009.3 0.3 77
2018-09-07 01:00:00 22.9 4 Noroeste 9 Noroeste 0 1009.4 1.2 75
2018-09-07 00:00:00 23.4 5 Noroeste 9 Noroeste 0 1009.5 2 73
2018-09-06 23:00:00 24 4 Sudoeste 6 Sudoeste 0 1009 2 70
2018-09-06 22:00:00 24.7 3 Nordeste 5 Este 0 1008.2 1.4 66
2018-09-06 21:00:00 24.8 5 Este 8 Sudeste 0 1007.5 1 66
2018-09-06 20:00:00 25.8 7 Este 16 Este 0 1007 0 63
2018-09-06 19:00:00 26.9 6 Sudeste 14 Noroeste 0 1006.8 -0.5 61
2018-09-06 18:00:00 26.8 5 Oeste 18 Nordeste 0 1006.5 -1 57
2018-09-06 17:00:00 26.6 8 Norte 18 Norte 0 1007 -0.8 55
2018-09-06 16:00:00 27.5 6 Nordeste 23 Este 0 1007.3 -0.6 54
2018-09-06 15:00:00 28.8 12 Este 30 Este 0 1007.5 -0.7 53
2018-09-06 14:00:00 28.3 16 Este 28 Este 0 1007.8 -0.2 55
2018-09-06 13:00:00 27.7 14 Este 25 Sudeste 0 1007.9 0.1 56
2018-09-06 12:00:00 27.8 7 Este 16 Nordeste 0 1008.2 0.6 56
2018-09-06 11:00:00 26.2 5 Este 12 Este 0 1008 0.7 60
2018-09-06 10:00:00 24.5 5 Norte 11 Noroeste 0 1007.8 1.1 62
2018-09-06 09:00:00 21.6 4 Noroeste 9 Noroeste 0 1007.6 1.2 78
2018-09-06 08:00:00 21 6 Oeste 9 Oeste 0 1007.3 1.2 81
2018-09-06 07:00:00 21 4 Noroeste 11 Noroeste 0 1006.7 0.5 82
2018-09-06 06:00:00 21.1 4 Noroeste 9 Norte 0 1006.4 0.1 82
2018-09-06 05:00:00 21.1 3 Noroeste 7 Noroeste 0 1006.1 -0.4 85
2018-09-06 04:00:00 21.7 3 Noroeste 8 Norte 0 1006.2 -0.6 83
2018-09-06 03:00:00 21.4 5 Norte 13 Noroeste 0 1006.3 -0.8 83
2018-09-06 02:00:00 21.9 7 Oeste 13 Oeste 0 1006.5 -0.6 82
2018-09-06 01:00:00 22.1 6 Oeste 14 Noroeste 0 1006.8 -0.4 82
2018-09-06 00:00:00 22.3 6 Noroeste 17 Oeste 0 1007.1 0.4 80
2018-09-05 23:00:00 22 10 Oeste 18 Oeste 0 1007.1 0.8 84
2018-09-05 22:00:00 22.5 6 Noroeste 17 Oeste 2.2 1007.2 1.4 85
2018-09-05 21:00:00 25.2 10 Norte 18 Nordeste 0.2 1006.7 0.7 72
2018-09-05 20:00:00 26.1 10 Nordeste 28 Este 0 1006.3 0.1 70
2018-09-05 19:00:00 27.7 12 Este 22 Sudeste 0 1005.8 -0.8 73
2018-09-05 18:00:00 28.1 8 Este 23 Este 0 1006 -0.9 75
2018-09-05 17:00:00 29.8 10 Este 24 Sudeste 0 1006.2 -1.6 67
2018-09-05 16:00:00 29.2 12 Sudeste 23 Este 0 1006.6 -1.9 67
2018-09-05 15:00:00 30.6 11 Sudeste 25 Este 0 1006.9 -2.3 59
2018-09-05 14:00:00 30.5 8 Sudeste 22 Sur 0 1007.8 -1.3 54
2018-09-05 13:00:00 29.6 10 Este 21 Sudeste 0 1008.5 -0.6 61
2018-09-05 12:00:00 28.5 12 Este 19 Este 0 1009.2 0.5 64
2018-09-05 11:00:00 26.3 4 Nordeste 11 Este 0 1009.1 0.8 72
2018-09-05 10:00:00 25.2 5 Sudeste 9 Sudeste 0 1009.1 1.4 80
2018-09-05 09:00:00 23.8 4 Noroeste 8 Noroeste 0 1008.7 1.3 86
2018-09-05 08:00:00 23.1 2 Noroeste 8 Noroeste 0 1008.3 0.8 88
2018-09-05 07:00:00 22.9 4 Noroeste 10 Noroeste 0 1007.7 0.3 87
2018-09-05 06:00:00 23.2 3 Noroeste 8 Noroeste 0 1007.4 -0.2 88
2018-09-05 05:00:00 23.6 3 Noroeste 6 Noroeste 0 1007.5 -0.3 88
2018-09-05 04:00:00 24.1 4 Noroeste 7 Noroeste 0.2 1007.4 -0.6 87
2018-09-05 03:00:00 24.4 5 Noroeste 9 Noroeste 0.4 1007.6 -0.4 86
2018-09-05 02:00:00 25 3 Noroeste 7 Noroeste 0 1007.8 0.1 81
2018-09-05 01:00:00 25.7 3 Norte 8 Nordeste 0 1008 0.9 79
2018-09-05 00:00:00 26 4 Nordeste 10 Nordeste 0 1008 1.4 78
2018-09-04 23:00:00 26.2 3 Nordeste 7 Este 0 1007.7 1.2 77
2018-09-04 22:00:00 26.1 4 Este 8 Nordeste 0 1007.1 1.1 78
2018-09-04 21:00:00 26.3 4 Nordeste 13 Este 0 1006.6 1 75
2018-09-04 20:00:00 27.3 5 Este 18 Sudeste 0 1006.5 0.7 71
2018-09-04 19:00:00 28 7 Este 22 Este 0 1006 -0.2 69
2018-09-04 18:00:00 28.9 9 Este 26 Sudeste 0 1005.6 -0.6 64
2018-09-04 17:00:00 29.2 12 Este 23 Sudeste 0 1005.8 -1 59
2018-09-04 16:00:00 29.7 9 Sudeste 21 Sudeste 0 1006.2 -0.7 59
2018-09-04 15:00:00 29.7 7 Este 24 Sudeste 0 1006.2 -0.8 59
2018-09-04 14:00:00 29.5 10 Sudeste -- -- -- 1006.8 -0.2 61
2018-09-04 13:00:00 29.8 10 Sudeste 19 Sudeste 0 1006.9 -0.1 55
2018-09-04 12:00:00 29 5 Sur 16 Este 0 1007 0.2 58
2018-09-04 11:00:00 27 5 Sudeste 11 Sudeste 0 1007 0.5 58
2018-09-04 10:00:00 23.8 5 Noroeste 13 Oeste 0 1007 0.6 60
2018-09-04 09:00:00 21.2 5 Oeste 17 Oeste 0 1006.8 0.5 69
2018-09-04 08:00:00 19.7 6 Noroeste 14 Noroeste 0 1006.5 -0.1 74
2018-09-04 07:00:00 19.9 7 Noroeste 14 Noroeste 0 1006.4 -0.1 73
2018-09-04 06:00:00 20 9 Oeste 14 Oeste 0 1006.3 0 73
2018-09-04 05:00:00 20.1 7 Noroeste 14 Oeste 0 1006.6 0.1 75
2018-09-04 04:00:00 21 6 Noroeste 16 Noroeste 0 1006.5 0 70
2018-09-04 03:00:00 21.4 9 Oeste 15 Oeste 0 1006.3 0.1 69
2018-09-04 02:00:00 22 4 Noroeste 18 Oeste 0 1006.5 0.7 67
2018-09-04 01:00:00 22 9 Sudoeste 26 Noroeste 0 1006.5 -0.9 68
2018-09-04 00:00:00 22 16 Oeste 28 Oeste 0 1006.2 -2.8 71
2018-09-03 23:00:00 21.6 12 Noroeste 21 Norte 0 1005.8 -3.5 74
2018-09-03 22:00:00 22.1 6 Oeste 13 Oeste 0 1007.4 1.3 76
2018-09-03 21:00:00 22 11 Norte 41 Oeste 1.8 1009 2.8 74
2018-09-03 20:00:00 26.4 13 Sudoeste 22 Sudoeste 0 1009.3 3.1 81
2018-09-03 19:00:00 26.7 7 Sur 16 Sur 0 1006.1 -1.2 77
2018-09-03 18:00:00 27.8 6 Sudeste 26 Este 0 1006.2 -0.5 73
2018-09-03 17:00:00 27.8 14 Sudeste 26 Este 0 1006.2 -1.8 77
2018-09-03 16:00:00 28.3 6 Sudeste 16 Sur 0 1007.3 -0.6 74
2018-09-03 15:00:00 27.8 12 Este 28 Sudeste 0.8 1006.7 -1.7 80
2018-09-03 14:00:00 28.4 8 Sur 18 Sudeste 0 1008 0.1 74
2018-09-03 13:00:00 26.9 8 Sudeste 17 Nordeste 0 1007.9 -0.1 82
2018-09-03 12:00:00 28.3 6 Este 15 Sudeste 0 1008.4 0.3 74
2018-09-03 11:00:00 26.5 5 Nordeste 15 Nordeste 0 1007.9 0.6 79
2018-09-03 10:00:00 25.6 6 Norte 13 Noroeste 0 1008 1 82
2018-09-03 09:00:00 25.2 7 Noroeste 13 Noroeste 0 1008.1 0.8 82
2018-09-03 08:00:00 24.6 4 Noroeste 10 Noroeste 0 1007.3 0 85
2018-09-03 07:00:00 24.4 4 Noroeste 10 Noroeste 0 1007 -0.2 85
2018-09-03 06:00:00 24.6 3 Noroeste 9 Noroeste 0 1007.3 -1.2 87
2018-09-03 05:00:00 25.1 3 Sur 10 Norte 0 1007.3 -1.5 85
2018-09-03 04:00:00 25.2 5 Nordeste 7 Norte 0 1007.2 -1.7 84
2018-09-03 03:00:00 25.4 3 Sudoeste 12 Sudoeste 0 1008.5 -0.6 84
2018-09-03 02:00:00 25.8 4 Sudoeste 6 Sudoeste 0 1008.8 -0.1 83
2018-09-03 01:00:00 26 3 Sur 8 Sur 0 1008.9 0.3 82
2018-09-03 00:00:00 26 5 Sur 9 Sur 0 1009.1 0.8 82
2018-09-02 23:00:00 26.2 4 Sur 11 Sur 0 1008.9 0.9 82
2018-09-02 22:00:00 26.3 6 Sur 10 Sur 0 1008.6 0.6 81
2018-09-02 21:00:00 26.7 7 Sur 15 Sur 0 1008.3 -0.1 78
2018-09-02 20:00:00 27.3 9 Sudeste 15 Sur 0 1008 -0.4 75
2018-09-02 19:00:00 28.3 10 Sur 21 Sur 0 1008 -0.7 70
2018-09-02 18:00:00 28.7 9 Sudeste 21 Sur 0 1008.4 -0.8 66
2018-09-02 17:00:00 29.5 11 Sudeste 22 Sur 0 1008.4 -1.6 63
2018-09-02 16:00:00 30.1 12 Sudeste 25 Este 0 1008.7 -2.1 60
2018-09-02 15:00:00 30.6 12 Sudeste 23 Sudeste 0 1009.2 -2.3 57
2018-09-02 14:00:00 30 13 Sur 27 Sur 0 1010 -1.7 60
2018-09-02 13:00:00 29.8 12 Sudeste 29 Sur 0 1010.8 -0.7 60
2018-09-02 12:00:00 29.2 14 Sur 23 Sur 0 1011.5 0 60
2018-09-02 11:00:00 27.1 4 Sur 9 Norte 0 1011.7 0.6 69
2018-09-02 10:00:00 24.7 4 Noroeste 12 Noroeste 0 1011.5 0.6 71
2018-09-02 09:00:00 23.2 6 Noroeste 13 Noroeste 0 1011.5 0.4 77
2018-09-02 08:00:00 22.5 4 Noroeste 13 Noroeste 0 1011.1 -0.3 79
2018-09-02 07:00:00 22.5 6 Noroeste 14 Noroeste 0 1010.9 -1.1 80
2018-09-02 06:00:00 22.6 6 Noroeste 15 Oeste 0 1011.1 -1 82
2018-09-02 05:00:00 23 9 Oeste 13 Oeste 0 1011.4 -1.1 83
2018-09-02 04:00:00 23.6 4 Noroeste 10 Noroeste 0 1012 -0.4 83
2018-09-02 03:00:00 23.9 2 Oeste 8 Noroeste 0 1012.1 -0.4 82
2018-09-02 02:00:00 24.3 3 Noroeste 10 Sudoeste 0 1012.5 0.1 81
2018-09-02 01:00:00 24.7 6 Sudoeste 8 Sudoeste 0 1012.4 0.3 79
2018-09-02 00:00:00 24.9 3 Sudoeste 5 Sudoeste 0 1012.5 1.1 81
2018-09-01 23:00:00 25.1 2 Sudoeste 5 Sudoeste 0 1012.4 1.4 78
2018-09-01 22:00:00 25.6 4 Sur 8 Sur 0 1012.1 0.9 75
2018-09-01 21:00:00 26.1 6 Sur 15 Sur 0 1011.4 0.2 71
2018-09-01 20:00:00 27.3 9 Sudeste 18 Este 0 1011 -0.5 69
2018-09-01 19:00:00 28.3 9 Sudeste 21 Sudeste 0 1011.2 -0.2 65
2018-09-01 18:00:00 28.8 11 Sudeste 21 Sudeste 0 1011.2 -0.9 61
2018-09-01 17:00:00 28.2 11 Sur 22 Sur 0 1011.5 -0.9 63
2018-09-01 16:00:00 30.9 15 Sur 23 Sur 0 1011.4 -1.6 52
2018-09-01 15:00:00 31 10 Sur 23 Sur 0 1012.1 -1.3 58
2018-09-01 14:00:00 30.3 13 Sur 24 Sur 0 1012.4 -1 58
2018-09-01 13:00:00 30.1 8 Sur 20 Sudeste 0 1013 -0.1 56
2018-09-01 12:00:00 28.3 9 Este 21 Este 0 1013.4 0.7 59
2018-09-01 11:00:00 27.4 7 Este 12 Este 0 1013.4 0.8 63
2018-09-01 10:00:00 25.4 4 Noroeste 16 Oeste 0 1013.1 0.5 62
2018-09-01 09:00:00 22.7 9 Oeste 20 Oeste 0 1012.7 0.2 72
2018-09-01 08:00:00 21.8 8 Noroeste 15 Noroeste 0 1012.6 0.1 77
2018-09-01 07:00:00 21.9 8 Noroeste 17 Oeste 0 1012.6 -0.1 80
2018-09-01 06:00:00 22.3 10 Oeste 19 Oeste 0 1012.5 -0.3 84
2018-09-01 05:00:00 22.3 8 Oeste 17 Oeste 0 1012.5 -0.6 86
2018-09-01 04:00:00 22.5 9 Oeste 15 Oeste 0 1012.7 -0.5 86
2018-09-01 03:00:00 22.8 6 Oeste 13 Oeste 0 1012.8 -0.2 85
2018-09-01 02:00:00 23.2 3 Noroeste 6 Noroeste 0 1013.1 0.3 83
2018-09-01 01:00:00 23.5 3 Noroeste 6 Noroeste 0 1013.2 0.6 83
2018-09-01 00:00:00 23.9 3 Sudoeste 6 Sudoeste 0 1013 1.2 80
2018-08-31 23:00:00 24.3 3 Sudoeste 7 Sudoeste 0 1012.8 1.2 79
2018-08-31 22:00:00 24.8 4 Sudoeste 7 Sur 0 1012.6 0.7 80
2018-08-31 21:00:00 25.3 4 Sudoeste 8 Sur 0 1011.8 -0.1 77
2018-08-31 20:00:00 25.8 4 Sudoeste 8 Sur 0 1011.6 -0.4 77
2018-08-31 19:00:00 26.4 4 Sudeste 11 Este 0 1011.9 -0.1 76
2018-08-31 18:00:00 26.8 6 Sudeste 18 Este 0 1011.9 -0.3 73
2018-08-31 17:00:00 27.5 10 Este 17 Sudeste 0 1012 -0.5 70
2018-08-31 16:00:00 27.6 9 Sudeste 19 Sudeste 0 1012 -0.9 71
2018-08-31 15:00:00 27.3 8 Sudeste 21 Este 0 1012.2 -0.6 70
2018-08-31 14:00:00 29.5 12 Sudeste 26 Sudeste 0 1012.5 -0.1 60
2018-08-31 13:00:00 30.5 12 Sudeste 21 Sudeste 0 1012.9 0.5 58
2018-08-31 12:00:00 30.2 9 Sur 15 Sur 0 1012.8 0.7 59
2018-08-31 11:00:00 28.4 8 Sur 15 Sudoeste 0 1012.6 0.8 63
2018-08-31 10:00:00 26.2 4 Sudoeste 12 Oeste 0 1012.4 0.9 69
2018-08-31 09:00:00 24 9 Oeste 15 Oeste 0 1012.1 0.7 80
2018-08-31 08:00:00 22.9 8 Oeste 13 Oeste 0 1011.8 0 86
2018-08-31 07:00:00 23.2 7 Oeste 10 Oeste 0 1011.5 -0.6 84
2018-08-31 06:00:00 23.6 6 Noroeste 12 Oeste 0 1011.4 -1.1 85
2018-08-31 05:00:00 23.9 4 Oeste 10 Oeste 0 1011.8 -0.9 83
2018-08-31 04:00:00 24 7 Oeste 12 Noroeste 0 1012.1 -0.5 84
2018-08-31 03:00:00 24.8 6 Oeste 11 Oeste 0 1012.5 -0.3 82
2018-08-31 02:00:00 24.5 2 Sudoeste 9 Sur 0 1012.7 -0.3 82
2018-08-31 01:00:00 24.8 4 Sudoeste 9 Sudoeste 0 1012.6 -0.2 82
2018-08-31 00:00:00 25.1 4 Sudoeste 9 Sudoeste 0 1012.8 0.7 83
2018-08-30 23:00:00 25.5 4 Sur 9 Sudoeste 0 1013 1.1 81
2018-08-30 22:00:00 25.7 5 Sudoeste 9 Sur 0 1012.8 0.5 80
2018-08-30 21:00:00 26.4 4 Sur 10 Sur 0 1012.1 -0.2 78
2018-08-30 20:00:00 26.9 7 Sur 13 Sur 0 1011.9 -0.5 75
2018-08-30 19:00:00 27.8 8 Sur 17 Sudoeste 0 1012.3 -0.6 70
2018-08-30 18:00:00 28.8 8 Sudeste 17 Sudeste 0 1012.3 -0.9 67
2018-08-30 17:00:00 30.5 9 Sudeste 23 Este 0 1012.4 -1 57
2018-08-30 16:00:00 30.1 13 Sudeste 30 Este 0 1012.9 -1 55
2018-08-30 15:00:00 29.9 12 Sudeste 31 Este 0 1013.2 -1.1 62
2018-08-30 14:00:00 29.8 11 Este 23 Este 0 1013.4 -0.8 61
2018-08-30 13:00:00 29.2 7 Este 22 Este 0 1013.9 0 63
2018-08-30 12:00:00 28.8 8 Este 19 Sudeste 0 1014.3 0.6 60
2018-08-30 11:00:00 27.8 6 Nordeste 15 Este 0 1014.2 1.1 63
2018-08-30 10:00:00 26 3 Norte 13 Noroeste 0 1013.9 1.2 65
2018-08-30 09:00:00 23 5 Noroeste 12 Noroeste 0 1013.7 1.4 75
2018-08-30 08:00:00 22.5 7 Noroeste 14 Noroeste 0 1013.1 0.5 79
2018-08-30 07:00:00 22.9 6 Noroeste 17 Oeste 0 1012.7 -0.7 75
2018-08-30 06:00:00 22.9 10 Oeste 18 Oeste 0 1012.3 -1 79
2018-08-30 05:00:00 23.3 9 Oeste 16 Noroeste 0 1012.6 -0.7 82
2018-08-30 04:00:00 23.9 8 Oeste 16 Oeste 0 1013.4 0.2 83
2018-08-30 03:00:00 23.6 3 Oeste 13 Oeste 0 1013.3 0 86
2018-08-30 02:00:00 24 6 Noroeste 13 Oeste 0 1013.3 0.2 84
2018-08-30 01:00:00 24.8 5 Noroeste 9 Noroeste 0 1013.2 0.7 81
2018-08-30 00:00:00 25.7 5 Norte 9 Nordeste 0 1013.3 1.6 78
2018-08-29 23:00:00 25.6 3 Norte 8 Noroeste 0 1013.1 2.4 82
2018-08-29 22:00:00 26.1 4 Norte 9 Este 0 1012.5 2.2 78
2018-08-29 21:00:00 26.2 4 Sudeste 9 Este 0 1011.7 1.1 77
2018-08-29 20:00:00 26.5 6 Este 17 Este 0 1010.7 0.1 77
2018-08-29 19:00:00 26.8 7 Este 15 Este 0 1010.3 -0.2 75
2018-08-29 18:00:00 27.4 7 Este 17 Sudeste 0 1010.6 -0.2 74
2018-08-29 17:00:00 28.4 9 Este 23 Este 0 1010.6 -0.1 69
2018-08-29 16:00:00 30.3 11 Sudeste 26 Este 0 1010.5 -0.3 64
2018-08-29 15:00:00 29.4 12 Este 26 Sudeste 0 1010.8 0 66
2018-08-29 14:00:00 29.8 13 Sudeste 27 Sudeste 0 1010.7 0 63
2018-08-29 13:00:00 30.3 12 Sudeste 22 Sudeste 0 1010.8 0.3 59
2018-08-29 12:00:00 30.1 8 Este 17 Este 0 1010.8 0.6 60
2018-08-29 11:00:00 28.7 5 Sudeste 11 Sudeste 0 1010.7 0.9 62
2018-08-29 10:00:00 26.3 4 Oeste 10 Oeste 0 1010.5 1 72
2018-08-29 09:00:00 24 6 Oeste 12 Oeste 0 1010.2 0.5 80
2018-08-29 08:00:00 23 5 Noroeste 13 Oeste 0 1009.8 -0.1 83
2018-08-29 07:00:00 23.3 5 Noroeste 10 Norte 0 1009.5 0.2 82
2018-08-29 06:00:00 23.7 5 Noroeste 13 Oeste 0 1009.7 -0.6 78
2018-08-29 05:00:00 23.9 7 Noroeste 21 Noroeste 0 1009.9 -1.6 77
2018-08-29 04:00:00 24.1 6 Este 15 Oeste 0 1009.3 -0.7 75
2018-08-29 03:00:00 24.7 6 Oeste 14 Sudeste 0 1010.3 -0.1 75
2018-08-29 02:00:00 24.3 4 Norte 21 Norte 0 1011.5 0.8 77
2018-08-29 01:00:00 24.5 3 Nordeste 5 Norte 0 1010 -0.2 79
2018-08-29 00:00:00 24.2 5 Noroeste 11 Oeste 0 1010.4 0.8 79
2018-08-28 23:00:00 24.8 0 Calma 8 Sudeste 0 1010.7 1.5 79
2018-08-28 22:00:00 25.4 5 Sudeste 7 Sudeste 0 1010.2 0.9 75
2018-08-28 21:00:00 25.6 4 Sudeste 12 Sur 0 1009.6 -0.4 75
2018-08-28 20:00:00 26.8 8 Sur 18 Sur 0 1009.2 -1.3 72
2018-08-28 19:00:00 27.7 9 Sur 15 Sur 0 1009.3 -0.5 67
2018-08-28 18:00:00 28.4 9 Sur 20 Sur 0 1010 -1.9 68
2018-08-28 17:00:00 27.9 12 Sur 24 Sur 0 1010.5 -1.1 78
2018-08-28 16:00:00 25.9 11 Nordeste 26 Norte 0 1009.8 -1.8 87
2018-08-28 15:00:00 26.6 7 Sur 20 Sur 0 1011.9 0.4 82
2018-08-28 14:00:00 28.4 10 Sudeste 21 Sudeste 0 1011.6 0.3 70
2018-08-28 13:00:00 29.3 9 Sudeste 21 Sur 0 1011.6 0.2 65
2018-08-28 12:00:00 29.1 9 Sudeste 17 Sudeste 0 1011.5 -0.2 66
2018-08-28 11:00:00 28 5 Sudeste 12 Sur 0 1011.3 -0.1 70
2018-08-28 10:00:00 26.1 3 Noroeste 9 Nordeste 0 1011.4 0.4 76
2018-08-28 09:00:00 23.6 4 Oeste 8 Noroeste 0 1011.7 0.7 84
2018-08-28 08:00:00 22.9 5 Noroeste 8 Noroeste 0 1011.4 0.5 87
2018-08-28 07:00:00 22.7 4 Noroeste 8 Noroeste 0 1011 0.2 88
2018-08-28 06:00:00 23 3 Noroeste 10 Oeste 0 1011 -0.7 87
2018-08-28 05:00:00 23.5 3 Oeste 6 Norte 0 1010.9 -1 86
2018-08-28 04:00:00 23.9 3 Norte 7 Sudoeste 0 1010.8 -1.3 84
2018-08-28 03:00:00 24.3 6 Sudoeste 9 Oeste 0 1011.7 -0.3 85
2018-08-28 02:00:00 24.4 4 Sur 8 Sudoeste 0 1011.9 0.1 85
2018-08-28 01:00:00 24.8 5 Sudoeste 10 Sudoeste 0 1012.1 0.9 83
2018-08-28 00:00:00 25.1 4 Sudoeste 7 Sudoeste 0 1012 1.3 83
2018-08-27 23:00:00 25.3 4 Sudoeste 7 Oeste 0 1011.8 1.4 81
2018-08-27 22:00:00 25.8 5 Sur 11 Sur 0 1011.2 1 77
2018-08-27 21:00:00 26.5 6 Sur 14 Sur 0 1010.7 0.5 74
2018-08-27 20:00:00 27.7 8 Sur 18 Sur 0 1010.4 0 68
2018-08-27 19:00:00 28.8 9 Sur 19 Sur 0 1010.2 -0.4 66
2018-08-27 18:00:00 29.8 12 Sur 21 Sudeste 0 1010.2 -0.5 60
2018-08-27 17:00:00 30.9 11 Sur 23 Sur 0 1010.4 -0.3 56
2018-08-27 16:00:00 31.3 12 Sur 23 Sudeste 0 1010.6 -0.5 56
2018-08-27 15:00:00 31.3 11 Sudeste 24 Este 0 1010.7 -0.4 59
2018-08-27 14:00:00 31 13 Sudeste 24 Este 0 1010.7 -0.3 61
2018-08-27 13:00:00 30.9 12 Sudeste 23 Sur 0 1011.1 0.4 63
2018-08-27 12:00:00 29 7 Sudeste 16 Sudeste 0 1011.1 0.7 67
2018-08-27 11:00:00 27 4 Oeste 12 Noroeste 0 1011 1 70
2018-08-27 10:00:00 25 8 Oeste 16 Oeste 0 1010.7 1.3 69
2018-08-27 09:00:00 23.7 8 Oeste 16 Oeste 0 1010.4 1.2 73
2018-08-27 08:00:00 23.1 8 Oeste 11 Noroeste 0 1010 0.9 77
2018-08-27 07:00:00 23.1 5 Oeste 13 Oeste 0 1009.4 0.4 78
2018-08-27 06:00:00 23.5 6 Oeste 12 Oeste 0 1009.2 0 76
2018-08-27 05:00:00 24.1 7 Oeste 11 Oeste 0 1009.1 -0.4 74
2018-08-27 04:00:00 24 4 Noroeste 13 Oeste 0 1009 -0.5 76
2018-08-27 03:00:00 24.3 4 Noroeste 7 Noroeste 0 1009.2 -0.4 75
2018-08-27 02:00:00 25 6 Oeste 8 Oeste 0 1009.5 -0.1 74
2018-08-27 01:00:00 25.5 4 Noroeste 6 Noroeste 0 1009.5 0.4 73
2018-08-27 00:00:00 25.3 3 Noroeste 5 Noroeste 0 1009.6 0.9 73
2018-08-26 23:00:00 25 3 Noroeste 9 Noroeste 0 1009.6 1.1 75
2018-08-26 22:00:00 25.3 5 Sudoeste 8 Sudoeste 0 1009.1 0.7 73
2018-08-26 21:00:00 25.7 0 Calma 7 Nordeste 0 1008.7 0.4 72
2018-08-26 20:00:00 26 4 Nordeste 13 Sudeste 0 1008.5 0 71
2018-08-26 19:00:00 26.6 5 Nordeste 18 Sudeste 0 1008.4 -0.6 67
2018-08-26 18:00:00 27 6 Este 20 Este 0 1008.3 -1.3 63
2018-08-26 17:00:00 27 7 Este 21 Sudeste 0 1008.5 -1.7 60
2018-08-26 16:00:00 27.7 11 Este 24 Este 0 1009 -1.7 55
2018-08-26 15:00:00 27.9 13 Este 26 Sudeste 0 1009.6 -1.5 53
2018-08-26 14:00:00 27.9 11 Este 26 Sudeste 0 1010.2 -1 50
2018-08-26 13:00:00 27.2 14 Este 23 Este 0 1010.7 -0.2 50
2018-08-26 12:00:00 27.2 6 Este 16 Este 0 1011.1 0.3 48
2018-08-26 11:00:00 25.8 6 Este 12 Este 0 1011.2 0.6 48
2018-08-26 10:00:00 23.7 4 Oeste 10 Oeste 0 1010.9 0.8 53
2018-08-26 09:00:00 22.7 6 Oeste 11 Noroeste 0 1010.8 1.1 57
2018-08-26 08:00:00 20.3 8 Noroeste 14 Oeste 0 1010.6 1 62
2018-08-26 07:00:00 20.8 6 Oeste 14 Oeste 0 1010.1 0.5 59
2018-08-26 06:00:00 21.3 6 Noroeste 11 Oeste 0 1009.7 0.1 58
2018-08-26 05:00:00 21.5 6 Noroeste 12 Oeste 0 1009.6 -0.1 60
2018-08-26 04:00:00 22.1 5 Noroeste 9 Oeste 0 1009.6 -0.1 61
2018-08-26 03:00:00 23.3 5 Norte 9 Norte 0 1009.6 0.1 54
2018-08-26 02:00:00 23.2 0 Calma 4 Noroeste 0 1009.7 0.4 75
2018-08-26 01:00:00 24.1 3 Noroeste 6 Noroeste 0 1009.7 1 71
2018-08-26 00:00:00 24.7 3 Noroeste 6 Oeste 0 1009.5 1.3 68
2018-08-25 23:00:00 24.8 3 Noroeste 5 Noroeste 0 1009.3 1.4 67
2018-08-25 22:00:00 24.8 4 Sudoeste 7 Sur 0 1008.7 1.1 67
2018-08-25 21:00:00 25.6 4 Sudeste 13 Este 0 1008.2 0.7 64
2018-08-25 20:00:00 26.4 7 Sudeste 19 Este 0 1007.9 0.4 60
2018-08-25 19:00:00 27 9 Sudeste 20 Este 0 1007.6 -0.3 59
2018-08-25 18:00:00 27.3 10 Este 22 Este 0 1007.5 -0.9 58
2018-08-25 17:00:00 27.8 13 Sudeste 23 Sudeste 0 1007.5 -1.3 57
2018-08-25 16:00:00 28.1 10 Sudeste 26 Sudeste 0 1007.9 -1.4 56
2018-08-25 15:00:00 28.5 14 Este 28 Sudeste 0 1008.4 -1.1 54
2018-08-25 14:00:00 28.4 14 Este 28 Sudeste 0 1008.8 -0.8 54
2018-08-25 13:00:00 28.3 12 Este 23 Este 0 1009.3 -0.2 55
2018-08-25 12:00:00 28.3 13 Este 23 Sudeste 0 1009.5 0 55
2018-08-25 11:00:00 28.1 8 Sudeste 18 Sudeste 0 1009.6 0.3 54
2018-08-25 10:00:00 26.3 5 Noroeste 13 Noroeste 0 1009.5 0.6 59
2018-08-25 09:00:00 24.1 6 Noroeste 12 Noroeste 0 1009.5 0.7 64
2018-08-25 08:00:00 21.4 5 Noroeste 12 Noroeste 0 1009.3 0.3 72
2018-08-25 07:00:00 21.9 4 Oeste 10 Noroeste 0 1008.9 -0.2 72
2018-08-25 06:00:00 22.3 4 Noroeste 12 Oeste 0 1008.8 -0.6 69
2018-08-25 05:00:00 22.8 7 Oeste 12 Oeste 0 1009 -0.5 68
2018-08-25 04:00:00 23.1 6 Oeste 13 Oeste 0 1009.1 -0.7 68
2018-08-25 03:00:00 23.5 8 Oeste 15 Oeste 0 1009.4 -0.4 72
2018-08-25 02:00:00 23.6 6 Oeste 14 Noroeste 0 1009.5 -0.4 77
2018-08-25 01:00:00 24.3 6 Oeste 12 Oeste 0 1009.8 0.2 77
2018-08-25 00:00:00 25 4 Noroeste 6 Noroeste 0 1009.8 0.9 76
2018-08-24 23:00:00 25.4 2 Sudoeste 5 Sur 0 1009.9 1 78
2018-08-24 22:00:00 25.8 3 Sur 7 Sur 0 1009.6 0.9 74
2018-08-24 21:00:00 26.4 5 Sur 14 Sur 0 1008.9 0 71
2018-08-24 20:00:00 27.9 8 Sur 16 Sur 0 1008.9 -0.5 64
2018-08-24 19:00:00 29.2 10 Sur 19 Sur 0 1008.7 -1 54
2018-08-24 18:00:00 30.1 8 Sur 21 Sudeste 0 1008.9 -1.5 52
2018-08-24 17:00:00 30.7 11 Sur 21 Sur 0 1009.4 -1.2 51
2018-08-24 16:00:00 31 13 Sur 27 Sur 0 1009.7 -1.1 54
2018-08-24 15:00:00 30.3 13 Sudeste 26 Este 0 1010.4 -0.9 59
2018-08-24 14:00:00 31.4 12 Sudeste 25 Este 0 1010.6 -0.9 56
2018-08-24 13:00:00 31.1 10 Sudeste 24 Este 0 1010.8 -0.5 52
2018-08-24 12:00:00 31.1 8 Sudeste 16 Sur 0 1011.3 0.4 49
2018-08-24 11:00:00 29.4 5 Sudeste 11 Este 0 1011.5 1 49
2018-08-24 10:00:00 26.6 5 Oeste 13 Oeste 0 1011.3 1.3 54
2018-08-24 09:00:00 24.1 5 Noroeste 15 Oeste 0 1010.9 1.3 55
2018-08-24 08:00:00 22.1 5 Oeste 13 Oeste 0 1010.5 0.9 57
2018-08-24 07:00:00 21.9 4 Noroeste 9 Noroeste 0 1010 0.3 57
2018-08-24 06:00:00 22.7 4 Noroeste 10 Noroeste 0 1009.6 0 55
2018-08-24 05:00:00 23.9 6 Noroeste 11 Oeste 0 1009.6 -0.2 50
2018-08-24 04:00:00 24 6 Noroeste 10 Noroeste 0 1009.7 0 52
2018-08-24 03:00:00 24.7 6 Oeste 13 Oeste 0 1009.6 -0.1 50
2018-08-24 02:00:00 24 5 Noroeste 10 Norte 0 1009.8 0 55
2018-08-24 01:00:00 24.6 6 Noroeste 14 Oeste 0 1009.7 -0.3 53
2018-08-24 00:00:00 26 5 Noroeste 15 Oeste 0 1009.7 0.4 50